createdAt,value
2018-12-15T00:02:10.421Z,9.03
2018-12-15T00:04:37.912Z,9.63
2018-12-15T00:07:05.467Z,10.20
2018-12-15T00:09:32.976Z,9.73
2018-12-15T00:12:00.563Z,9.80
2018-12-15T00:14:28.194Z,10.10
2018-12-15T00:16:55.869Z,9.90
2018-12-15T00:19:23.420Z,10.50
2018-12-15T00:21:50.957Z,10.03
2018-12-15T00:24:18.386Z,11.37
2018-12-15T00:26:45.885Z,9.83
2018-12-15T00:29:13.330Z,10.67
2018-12-15T00:31:40.885Z,10.17
2018-12-15T00:34:08.487Z,10.10
2018-12-15T00:36:36.022Z,9.23
2018-12-15T00:39:05.431Z,9.50
2018-12-15T00:41:32.905Z,9.57
2018-12-15T00:44:00.401Z,10.03
2018-12-15T00:46:27.855Z,9.90
2018-12-15T00:48:55.421Z,10.27
2018-12-15T00:51:22.879Z,9.13
2018-12-15T00:53:50.378Z,9.50
2018-12-15T00:56:17.885Z,10.07
2018-12-15T00:58:45.442Z,9.67
2018-12-15T01:01:12.994Z,10.33
2018-12-15T01:03:40.491Z,10.23
2018-12-15T01:06:08.170Z,10.40
2018-12-15T01:08:35.678Z,10.00
2018-12-15T01:11:03.155Z,10.27
2018-12-15T01:13:30.689Z,9.37
2018-12-15T01:15:58.163Z,10.00
2018-12-15T01:18:25.648Z,9.47
2018-12-15T01:20:53.218Z,10.37
2018-12-15T01:23:20.730Z,9.40
2018-12-15T01:25:48.209Z,9.80
2018-12-15T01:28:15.681Z,9.73
2018-12-15T01:30:43.151Z,9.53
2018-12-15T01:33:10.642Z,9.20
2018-12-15T01:35:38.210Z,9.27
2018-12-15T01:38:05.675Z,9.43
2018-12-15T01:40:33.186Z,9.43
2018-12-15T01:43:00.680Z,9.30
2018-12-15T01:45:28.146Z,8.93
2018-12-15T01:47:55.688Z,8.57
2018-12-15T01:50:23.302Z,8.87
2018-12-15T01:52:50.775Z,10.03
2018-12-15T01:55:18.250Z,9.07
2018-12-15T01:57:45.701Z,9.07
2018-12-15T02:00:13.453Z,8.67
2018-12-15T02:02:40.913Z,8.70
2018-12-15T02:05:08.361Z,8.90
2018-12-15T02:07:35.832Z,8.90
2018-12-15T02:10:04.534Z,9.27
2018-12-15T02:12:32.080Z,8.70
2018-12-15T02:14:59.518Z,8.63
2018-12-15T02:17:33.434Z,8.93
2018-12-15T02:19:56.471Z,9.60
2018-12-15T02:22:23.922Z,9.60
2018-12-15T02:24:51.373Z,9.17
2018-12-15T02:27:18.838Z,9.80
2018-12-15T02:29:46.290Z,9.87
2018-12-15T02:32:13.762Z,9.50
2018-12-15T02:34:41.206Z,9.87
2018-12-15T02:37:08.665Z,9.77
2018-12-15T02:39:36.116Z,10.37
2018-12-15T02:42:03.590Z,9.73
2018-12-15T02:44:31.037Z,9.90
2018-12-15T02:46:58.507Z,9.67
2018-12-15T02:49:25.957Z,10.40
2018-12-15T02:51:53.427Z,10.13
2018-12-15T02:54:20.951Z,9.87
2018-12-15T02:56:48.503Z,9.13
2018-12-15T02:59:15.962Z,9.70
2018-12-15T03:01:43.414Z,9.90
2018-12-15T03:04:10.891Z,10.30
2018-12-15T03:06:38.351Z,9.53
2018-12-15T03:09:06.091Z,9.27
2018-12-15T03:11:33.535Z,9.90
2018-12-15T03:14:01.014Z,9.53
2018-12-15T03:16:28.455Z,10.57
2018-12-15T03:18:55.943Z,9.37
2018-12-15T03:21:23.387Z,9.83
2018-12-15T03:23:50.854Z,9.50
2018-12-15T03:26:18.292Z,9.67
2018-12-15T03:28:45.758Z,9.30
2018-12-15T03:31:13.215Z,9.87
2018-12-15T03:33:40.678Z,8.60
2018-12-15T03:36:08.130Z,9.07
2018-12-15T03:38:35.604Z,9.77
2018-12-15T03:41:03.082Z,9.50
2018-12-15T03:43:30.526Z,9.20
2018-12-15T03:45:57.994Z,9.53
2018-12-15T03:48:25.449Z,10.13
2018-12-15T03:50:52.922Z,9.33
2018-12-15T03:53:20.365Z,9.17
2018-12-15T03:55:47.835Z,9.80
2018-12-15T03:58:15.293Z,8.97
2018-12-15T04:00:42.872Z,9.53
2018-12-15T04:03:10.312Z,9.00
2018-12-15T04:05:37.823Z,9.47
2018-12-15T04:08:05.334Z,8.47
2018-12-15T04:10:32.825Z,9.07
2018-12-15T04:13:00.264Z,8.60
2018-12-15T04:15:27.708Z,8.90
2018-12-15T04:17:55.182Z,8.40
2018-12-15T04:20:22.656Z,8.57
2018-12-15T04:22:50.203Z,9.53
2018-12-15T04:25:17.647Z,9.03
2018-12-15T04:27:45.125Z,8.37
2018-12-15T04:30:12.581Z,8.73
2018-12-15T04:32:45.087Z,9.90
2018-12-15T04:35:09.513Z,9.40
2018-12-15T04:37:37.005Z,9.67
2018-12-15T04:40:05.778Z,8.90
2018-12-15T04:42:33.253Z,10.07
2018-12-15T04:45:00.713Z,9.53
2018-12-15T04:47:28.358Z,8.80
2018-12-15T04:49:55.844Z,8.57
2018-12-15T04:52:23.313Z,8.77
2018-12-15T04:54:50.778Z,9.97
2018-12-15T04:57:18.250Z,8.90
2018-12-15T04:59:45.711Z,8.97
2018-12-15T05:02:13.158Z,9.80
2018-12-15T05:04:40.630Z,9.03
2018-12-15T05:07:08.071Z,9.80
2018-12-15T05:09:35.553Z,9.23
2018-12-15T05:12:03.002Z,9.03
2018-12-15T05:14:30.454Z,9.77
2018-12-15T05:16:57.898Z,9.50
2018-12-15T05:19:25.358Z,8.77
2018-12-15T05:21:52.810Z,9.37
2018-12-15T05:24:20.471Z,9.33
2018-12-15T05:26:48.038Z,10.40
2018-12-15T05:29:15.530Z,9.70
2018-12-15T05:31:43.011Z,10.00
2018-12-15T05:34:10.467Z,9.83
2018-12-15T05:36:37.915Z,9.03
2018-12-15T05:39:05.921Z,9.90
2018-12-15T05:41:33.355Z,9.37
2018-12-15T05:44:00.836Z,9.50
2018-12-15T05:46:28.280Z,9.60
2018-12-15T05:48:55.733Z,10.67
2018-12-15T05:51:23.202Z,10.20
2018-12-15T05:53:50.650Z,9.70
2018-12-15T05:56:18.124Z,10.47
2018-12-15T05:58:45.558Z,9.90
2018-12-15T06:01:13.042Z,9.80
2018-12-15T06:03:40.494Z,9.50
2018-12-15T06:06:07.962Z,8.47
2018-12-15T06:08:35.404Z,9.50
2018-12-15T06:11:02.880Z,10.00
2018-12-15T06:13:30.330Z,10.10
2018-12-15T06:15:57.798Z,9.67
2018-12-15T06:18:31.440Z,9.17
2018-12-15T06:20:54.700Z,9.50
2018-12-15T06:23:22.213Z,9.87
2018-12-15T06:25:49.689Z,9.47
2018-12-15T06:28:17.259Z,9.27
2018-12-15T06:30:44.815Z,10.17
2018-12-15T06:33:12.372Z,9.50
2018-12-15T06:35:39.814Z,10.30
2018-12-15T06:38:07.294Z,10.30
2018-12-15T06:40:34.737Z,10.37
2018-12-15T06:43:02.275Z,9.53
2018-12-15T06:45:29.750Z,10.63
2018-12-15T06:47:57.234Z,9.63
2018-12-15T06:50:24.775Z,10.30
2018-12-15T06:52:52.247Z,10.47
2018-12-15T06:55:19.703Z,10.67
2018-12-15T06:57:47.178Z,11.47
2018-12-15T07:00:14.639Z,11.60
2018-12-15T07:02:42.107Z,11.10
2018-12-15T07:05:09.630Z,11.87
2018-12-15T07:07:37.195Z,10.50
2018-12-15T07:10:05.102Z,11.13
2018-12-15T07:12:32.579Z,11.57
2018-12-15T07:15:00.031Z,11.47
2018-12-15T07:17:27.532Z,12.03
2018-12-15T07:19:55.000Z,10.87
2018-12-15T07:22:22.459Z,11.67
2018-12-15T07:24:49.938Z,11.90
2018-12-15T07:27:17.391Z,11.23
2018-12-15T07:29:44.872Z,12.50
2018-12-15T07:32:12.331Z,11.60
2018-12-15T07:34:39.814Z,11.67
2018-12-15T07:37:07.254Z,11.87
2018-12-15T07:39:34.742Z,12.20
2018-12-15T07:42:02.206Z,12.87
2018-12-15T07:44:29.690Z,12.53
2018-12-15T07:46:57.150Z,11.90
2018-12-15T07:49:24.633Z,11.70
2018-12-15T07:51:52.075Z,12.23
2018-12-15T07:54:19.551Z,11.60
2018-12-15T07:56:46.993Z,12.23
2018-12-15T07:59:14.467Z,12.30
2018-12-15T08:01:41.935Z,12.93
2018-12-15T08:04:09.378Z,12.43
2018-12-15T08:06:36.855Z,12.17
2018-12-15T08:09:05.854Z,11.80
2018-12-15T08:11:38.874Z,12.27
2018-12-15T08:14:08.297Z,13.50
2018-12-15T08:16:35.795Z,14.47
2018-12-15T08:19:03.342Z,13.23
2018-12-15T08:21:30.814Z,13.73
2018-12-15T08:23:58.291Z,13.00
2018-12-15T08:26:25.855Z,11.87
2018-12-15T08:28:53.306Z,15.70
2018-12-15T08:31:20.770Z,14.47
2018-12-15T08:33:48.217Z,18.40
2018-12-15T08:36:15.690Z,14.03
2018-12-15T08:38:43.355Z,13.50
2018-12-15T08:41:10.866Z,20.77
2018-12-15T08:43:38.335Z,19.57
2018-12-15T08:46:08.457Z,16.90
2018-12-15T08:48:35.900Z,15.47
2018-12-15T08:51:04.095Z,15.70
2018-12-15T08:53:31.570Z,14.90
2018-12-15T08:55:59.055Z,15.67
2018-12-15T08:58:27.502Z,14.27
2018-12-15T09:00:54.976Z,14.33
2018-12-15T09:03:23.030Z,14.43
2018-12-15T09:05:50.539Z,13.80
2018-12-15T09:08:18.011Z,13.37
2018-12-15T09:10:45.471Z,13.33
2018-12-15T09:13:13.854Z,13.30
2018-12-15T09:15:41.315Z,12.77
2018-12-15T09:18:09.777Z,12.80
2018-12-15T09:20:37.369Z,12.50
2018-12-15T09:23:04.841Z,12.17
2018-12-15T09:25:32.299Z,12.83
2018-12-15T09:27:59.778Z,13.07
2018-12-15T09:30:27.244Z,12.70
2018-12-15T09:32:54.708Z,13.07
2018-12-15T09:35:22.163Z,12.40
2018-12-15T09:37:49.694Z,13.03
2018-12-15T09:40:17.163Z,13.23
2018-12-15T09:42:44.663Z,12.93
2018-12-15T09:45:12.251Z,13.00
2018-12-15T09:47:39.744Z,12.43
2018-12-15T09:50:07.284Z,12.40
2018-12-15T09:52:34.799Z,12.57
2018-12-15T09:55:02.274Z,12.90
2018-12-15T09:57:29.743Z,12.13
2018-12-15T09:59:57.209Z,12.80
2018-12-15T10:02:24.675Z,12.80
2018-12-15T10:04:52.173Z,12.07
2018-12-15T10:07:19.623Z,13.57
2018-12-15T10:09:47.106Z,12.87
2018-12-15T10:12:14.576Z,13.83
2018-12-15T10:14:42.124Z,12.43
2018-12-15T10:17:09.574Z,12.93
2018-12-15T10:19:37.128Z,12.77
2018-12-15T10:22:04.629Z,11.83
2018-12-15T10:24:32.099Z,11.87
2018-12-15T10:26:59.558Z,12.40
2018-12-15T10:35:37.028Z,11.63
2018-12-15T10:38:04.515Z,12.23
2018-12-15T10:40:32.021Z,11.77
2018-12-15T10:42:59.506Z,11.50
2018-12-15T10:45:26.987Z,11.17
2018-12-15T10:47:54.456Z,11.63
2018-12-15T10:50:21.949Z,12.60
2018-12-15T10:52:49.448Z,12.57
2018-12-15T10:55:16.931Z,11.93
2018-12-15T10:57:44.382Z,11.50
2018-12-15T11:00:14.145Z,11.73
2018-12-15T11:02:41.636Z,12.23
2018-12-15T11:05:09.195Z,11.30
2018-12-15T11:07:36.688Z,11.80
2018-12-15T11:10:04.514Z,11.33
2018-12-15T11:12:31.997Z,11.77
2018-12-15T11:14:59.456Z,11.77
2018-12-15T11:17:26.935Z,11.77
2018-12-15T11:19:54.403Z,11.50
2018-12-15T11:22:22.754Z,11.13
2018-12-15T11:24:50.233Z,11.07
2018-12-15T11:27:17.990Z,11.50
2018-12-15T11:29:46.066Z,10.27
2018-12-15T11:32:15.499Z,10.67
2018-12-15T11:34:42.986Z,11.07
2018-12-15T11:37:11.886Z,11.50
2018-12-15T11:39:39.322Z,10.33
2018-12-15T11:42:06.772Z,11.43
2018-12-15T11:44:34.903Z,10.23
2018-12-15T11:47:02.364Z,10.10
2018-12-15T11:49:29.837Z,11.40
2018-12-15T11:51:57.279Z,11.07
2018-12-15T11:54:24.782Z,11.37
2018-12-15T11:56:52.224Z,11.07
2018-12-15T11:59:19.711Z,11.60
2018-12-15T12:01:47.186Z,11.20
2018-12-15T12:04:14.643Z,11.47
2018-12-15T12:06:42.119Z,27.33
2018-12-15T12:09:09.632Z,11.70
2018-12-15T12:11:37.098Z,11.73
2018-12-15T12:14:04.616Z,11.30
2018-12-15T12:16:32.071Z,10.80
2018-12-15T12:18:59.589Z,11.37
2018-12-15T12:21:27.023Z,11.43
2018-12-15T12:23:54.560Z,11.30
2018-12-15T12:26:22.059Z,10.83
2018-12-15T12:28:49.510Z,11.17
2018-12-15T12:31:16.983Z,11.17
2018-12-15T12:33:44.490Z,10.83
2018-12-15T12:36:11.951Z,10.43
2018-12-15T12:38:39.402Z,10.80
2018-12-15T12:41:06.902Z,11.63
2018-12-15T12:43:34.334Z,10.37
2018-12-15T12:46:01.813Z,10.37
2018-12-15T12:48:29.278Z,12.83
2018-12-15T12:50:56.754Z,17.20
2018-12-15T12:53:24.478Z,11.70
2018-12-15T12:55:51.955Z,10.63
2018-12-15T12:58:19.439Z,10.57
2018-12-15T13:00:46.898Z,11.23
2018-12-15T13:03:14.598Z,10.20
2018-12-15T13:05:42.108Z,11.00
2018-12-15T13:08:09.898Z,11.20
2018-12-15T13:10:37.421Z,10.90
2018-12-15T13:13:04.980Z,10.30
2018-12-15T13:15:32.441Z,10.17
2018-12-15T13:17:59.956Z,10.13
2018-12-15T13:20:27.410Z,9.90
2018-12-15T13:22:54.999Z,11.83
2018-12-15T13:25:22.519Z,12.53
2018-12-15T13:27:49.991Z,11.20
2018-12-15T13:30:17.446Z,12.87
2018-12-15T13:32:44.924Z,12.07
2018-12-15T13:35:12.368Z,11.33
2018-12-15T13:37:39.865Z,10.80
2018-12-15T13:40:07.712Z,10.60
2018-12-15T13:42:35.187Z,11.13
2018-12-15T13:45:02.843Z,11.23
2018-12-15T13:47:30.303Z,10.97
2018-12-15T13:49:57.946Z,11.53
2018-12-15T13:52:25.501Z,10.10
2018-12-15T13:54:52.975Z,10.87
2018-12-15T13:57:20.448Z,11.33
2018-12-15T13:59:47.918Z,10.80
2018-12-15T14:02:15.395Z,11.27
2018-12-15T14:04:42.880Z,10.80
2018-12-15T14:07:10.346Z,10.80
2018-12-15T14:09:37.786Z,10.90
2018-12-15T14:12:05.238Z,11.90
2018-12-15T14:14:32.859Z,11.00
2018-12-15T14:17:00.362Z,11.13
2018-12-15T14:19:27.926Z,11.53
2018-12-15T14:21:55.443Z,13.77
2018-12-15T14:24:22.921Z,13.50
2018-12-15T14:26:50.409Z,16.53
2018-12-15T14:29:17.857Z,11.30
2018-12-15T14:31:45.330Z,11.47
2018-12-15T14:34:12.777Z,10.67
2018-12-15T14:36:40.250Z,10.53
2018-12-15T14:39:07.702Z,10.83
2018-12-15T14:41:35.190Z,10.40
2018-12-15T14:44:02.704Z,10.53
2018-12-15T14:46:30.185Z,10.70
2018-12-15T14:48:57.647Z,11.20
2018-12-15T14:51:25.135Z,10.37
2018-12-15T14:53:52.596Z,10.93
2018-12-15T14:56:20.080Z,10.73
2018-12-15T14:58:47.616Z,10.43
2018-12-15T15:01:15.110Z,11.60
2018-12-15T15:03:42.646Z,10.50
2018-12-15T15:06:10.110Z,11.93
2018-12-15T15:08:37.579Z,11.73
2018-12-15T15:11:05.047Z,11.63
2018-12-15T15:13:34.719Z,10.90
2018-12-15T15:16:02.062Z,10.53
2018-12-15T15:18:29.575Z,10.70
2018-12-15T15:20:57.033Z,10.70
2018-12-15T15:23:24.529Z,10.77
2018-12-15T15:25:51.986Z,10.93
2018-12-15T15:28:19.522Z,10.80
2018-12-15T15:30:46.998Z,10.93
2018-12-15T15:33:15.159Z,10.73
2018-12-15T15:35:42.613Z,10.47
2018-12-15T15:38:10.083Z,11.03
2018-12-15T15:40:37.666Z,10.00
2018-12-15T15:43:05.143Z,10.80
2018-12-15T15:45:32.595Z,10.73
2018-12-15T15:48:00.052Z,10.33
2018-12-15T15:50:27.543Z,11.13
2018-12-15T15:52:55.018Z,10.63
2018-12-15T15:55:22.507Z,10.67
2018-12-15T15:57:49.990Z,10.93
2018-12-15T16:00:17.476Z,10.53
2018-12-15T16:02:44.945Z,10.87
2018-12-15T16:05:12.420Z,10.33
2018-12-15T16:07:39.891Z,10.83
2018-12-15T16:10:09.002Z,10.63
2018-12-15T16:12:36.467Z,10.80
2018-12-15T16:15:05.303Z,9.93
2018-12-15T16:17:32.769Z,11.33
2018-12-15T16:20:00.239Z,10.97
2018-12-15T16:22:27.726Z,11.03
2018-12-15T16:24:55.251Z,10.93
2018-12-15T16:27:22.716Z,10.90
2018-12-15T16:29:50.185Z,11.73
2018-12-15T16:32:17.671Z,10.87
2018-12-15T16:34:45.179Z,10.80
2018-12-15T16:37:12.628Z,10.23
2018-12-15T16:39:40.076Z,10.97
2018-12-15T16:42:07.543Z,10.27
2018-12-15T16:44:35.015Z,11.57
2018-12-15T16:47:02.508Z,11.17
2018-12-15T16:49:29.958Z,11.20
2018-12-15T16:51:57.458Z,11.43
2018-12-15T16:54:24.914Z,10.97
2018-12-15T16:56:52.392Z,11.67
2018-12-15T16:59:20.547Z,11.87
2018-12-15T17:01:48.126Z,11.83
2018-12-15T17:04:15.578Z,11.83
2018-12-15T17:06:43.040Z,11.47
2018-12-15T17:09:10.533Z,11.53
2018-12-15T17:11:38.015Z,12.33
2018-12-15T17:14:05.642Z,11.00
2018-12-15T17:16:33.182Z,11.33
2018-12-15T17:19:01.117Z,11.27
2018-12-15T17:21:28.798Z,11.10
2018-12-15T17:23:56.262Z,11.63
2018-12-15T17:26:23.742Z,11.33
2018-12-15T17:28:51.198Z,12.00
2018-12-15T17:31:18.712Z,11.57
2018-12-15T17:33:46.216Z,13.00
2018-12-15T17:36:13.666Z,16.27
2018-12-15T17:38:41.239Z,20.23
2018-12-15T17:41:08.708Z,14.17
2018-12-15T17:43:36.171Z,14.27
2018-12-15T17:46:03.651Z,12.30
2018-12-15T17:48:31.144Z,12.27
2018-12-15T17:51:03.258Z,10.83
2018-12-15T17:53:28.071Z,12.37
2018-12-15T17:55:55.554Z,12.63
2018-12-15T17:58:23.049Z,11.80
2018-12-15T18:00:50.499Z,13.20
2018-12-15T18:03:17.994Z,14.50
2018-12-15T18:05:45.471Z,12.13
2018-12-15T18:08:12.940Z,13.10
2018-12-15T18:10:40.403Z,18.73
2018-12-15T18:13:07.901Z,16.93
2018-12-15T18:15:35.360Z,22.67
2018-12-15T18:18:02.887Z,19.67
2018-12-15T18:20:30.340Z,15.73
2018-12-15T18:22:57.795Z,11.43
2018-12-15T18:25:25.267Z,12.17
2018-12-15T18:27:52.740Z,12.23
2018-12-15T18:30:20.218Z,11.50
2018-12-15T18:32:47.865Z,11.60
2018-12-15T18:35:15.358Z,12.13
2018-12-15T18:37:42.819Z,13.33
2018-12-15T18:40:11.090Z,11.57
2018-12-15T18:42:38.654Z,11.97
2018-12-15T18:45:06.421Z,11.67
2018-12-15T18:47:33.879Z,11.73
2018-12-15T18:50:02.228Z,11.73
2018-12-15T18:52:29.695Z,11.70
2018-12-15T18:54:57.168Z,12.27
2018-12-15T18:57:24.654Z,12.10
2018-12-15T18:59:52.143Z,11.93
2018-12-15T19:02:19.618Z,12.50
2018-12-15T19:04:47.078Z,11.80
2018-12-15T19:07:14.574Z,11.93
2018-12-15T19:09:42.054Z,12.90
2018-12-15T19:12:09.552Z,12.77
2018-12-15T19:14:37.029Z,12.40
2018-12-15T19:17:04.510Z,11.87
2018-12-15T19:19:31.995Z,13.43
2018-12-15T19:21:59.514Z,12.63
2018-12-15T19:24:26.971Z,12.57
2018-12-15T19:26:54.474Z,12.37
2018-12-15T19:29:21.958Z,12.97
2018-12-15T19:31:49.442Z,12.23
2018-12-15T19:34:17.693Z,13.47
2018-12-15T19:36:45.430Z,12.57
2018-12-15T19:39:12.949Z,14.07
2018-12-15T19:41:40.403Z,13.70
2018-12-15T19:44:07.881Z,12.70
2018-12-15T19:46:35.375Z,13.47
2018-12-15T19:49:02.825Z,12.90
2018-12-15T19:51:30.469Z,12.90
2018-12-15T19:53:58.150Z,13.40
2018-12-15T19:56:25.651Z,13.57
2018-12-15T19:58:53.097Z,13.63
2018-12-15T20:01:20.602Z,13.63
2018-12-15T20:03:48.075Z,13.63
2018-12-15T20:06:15.621Z,12.97
2018-12-15T20:08:43.643Z,13.90
2018-12-15T20:11:11.138Z,13.93
2018-12-15T20:13:38.620Z,13.97
2018-12-15T20:16:06.067Z,15.17
2018-12-15T20:18:33.551Z,13.87
2018-12-15T20:21:01.038Z,13.33
2018-12-15T20:23:28.503Z,13.30
2018-12-15T20:25:55.997Z,13.73
2018-12-15T20:28:23.473Z,13.57
2018-12-15T20:30:51.691Z,13.80
2018-12-15T20:33:19.443Z,14.10
2018-12-15T20:35:47.201Z,15.43
2018-12-15T20:38:14.658Z,13.37
2018-12-15T20:40:42.173Z,13.40
2018-12-15T20:43:09.666Z,13.53
2018-12-15T20:45:37.158Z,14.03
2018-12-15T20:48:04.659Z,13.93
2018-12-15T20:50:32.144Z,14.87
2018-12-15T20:52:59.614Z,13.73
2018-12-15T20:55:27.088Z,14.03
2018-12-15T20:57:54.609Z,13.20
2018-12-15T21:00:22.086Z,14.13
2018-12-15T21:02:49.550Z,13.67
2018-12-15T21:05:17.033Z,14.10
2018-12-15T21:07:44.503Z,14.13
2018-12-15T21:10:12.927Z,13.53
2018-12-15T21:12:40.495Z,14.47
2018-12-15T21:15:09.978Z,13.87
2018-12-15T21:17:37.428Z,14.60
2018-12-15T21:20:07.892Z,13.97
2018-12-15T21:22:35.397Z,13.87
2018-12-15T21:25:03.043Z,13.60
2018-12-15T21:27:30.501Z,14.10
2018-12-15T21:29:57.970Z,14.63
2018-12-15T21:32:25.451Z,14.17
2018-12-15T21:34:52.891Z,14.17
2018-12-15T21:37:20.357Z,14.07
2018-12-15T21:39:47.857Z,13.80
2018-12-15T21:42:15.367Z,14.30
2018-12-15T21:44:42.864Z,13.60
2018-12-15T21:47:10.347Z,14.00
2018-12-15T21:49:37.807Z,14.03
2018-12-15T21:52:05.287Z,13.00
2018-12-15T21:54:32.840Z,14.10
2018-12-15T21:57:00.468Z,14.03
2018-12-15T21:59:27.942Z,13.83
2018-12-15T22:01:55.427Z,14.23
2018-12-15T22:04:22.934Z,15.40
2018-12-15T22:06:50.475Z,13.63
2018-12-15T22:09:18.006Z,13.70
2018-12-15T22:11:45.492Z,13.97
2018-12-15T22:14:12.962Z,13.37
2018-12-15T22:16:40.415Z,14.13
2018-12-15T22:19:07.975Z,13.67
2018-12-15T22:21:35.506Z,13.97
2018-12-15T22:24:03.034Z,13.97
2018-12-15T22:26:30.513Z,13.53
2018-12-15T22:28:58.083Z,13.90
2018-12-15T22:31:25.550Z,12.97
2018-12-15T22:33:53.062Z,14.20
2018-12-15T22:36:20.527Z,14.17
2018-12-15T22:38:47.979Z,14.13
2018-12-15T22:41:15.478Z,13.17
2018-12-15T22:43:43.002Z,13.60
2018-12-15T22:46:10.484Z,14.13
2018-12-15T22:48:37.931Z,14.30
2018-12-15T22:51:05.403Z,14.33
2018-12-15T22:53:32.862Z,13.60
2018-12-15T22:56:00.374Z,13.60
2018-12-15T22:58:27.863Z,14.03
2018-12-15T23:01:01.370Z,13.83
2018-12-15T23:03:28.847Z,14.10
2018-12-15T23:05:56.320Z,14.80
2018-12-15T23:08:23.759Z,14.70
2018-12-15T23:10:51.277Z,15.10
2018-12-15T23:13:18.726Z,14.27
2018-12-15T23:15:46.210Z,15.47
2018-12-15T23:18:13.647Z,14.73
2018-12-15T23:20:41.183Z,13.83
2018-12-15T23:23:08.666Z,13.40
2018-12-15T23:25:36.188Z,15.03
2018-12-15T23:28:03.752Z,14.60
2018-12-15T23:30:31.348Z,14.70
2018-12-15T23:32:58.822Z,14.60
2018-12-15T23:35:26.314Z,15.17
2018-12-15T23:37:53.815Z,15.47
2018-12-15T23:40:21.270Z,13.90
2018-12-15T23:42:48.785Z,14.20
2018-12-15T23:45:16.235Z,15.40
2018-12-15T23:47:43.710Z,15.07
2018-12-15T23:50:11.168Z,14.87
2018-12-15T23:52:38.734Z,14.60
2018-12-15T23:55:06.299Z,14.07
2018-12-15T23:57:33.755Z,14.17
